sensor_id;sensor_type;location;lat;lon;timestamp;temperature;humidity
25092;DHT22;13082;52.374;4.946;2024-03-08T00:01:10;5.70;99.90
25092;DHT22;13082;52.374;4.946;2024-03-08T00:03:35;5.70;99.90
25092;DHT22;13082;52.374;4.946;2024-03-08T00:06:01;5.70;99.90
25092;DHT22;13082;52.374;4.946;2024-03-08T00:08:27;5.70;99.90
25092;DHT22;13082;52.374;4.946;2024-03-08T00:10:53;5.70;99.90
25092;DHT22;13082;52.374;4.946;2024-03-08T00:13:19;5.70;99.90
25092;DHT22;13082;52.374;4.946;2024-03-08T00:15:45;5.70;99.90
25092;DHT22;13082;52.374;4.946;2024-03-08T00:18:11;5.70;99.90
25092;DHT22;13082;52.374;4.946;2024-03-08T00:20:37;5.70;99.90
25092;DHT22;13082;52.374;4.946;2024-03-08T00:23:02;5.70;99.90
25092;DHT22;13082;52.374;4.946;2024-03-08T00:25:28;5.70;99.90
25092;DHT22;13082;52.374;4.946;2024-03-08T00:27:54;5.70;99.90
25092;DHT22;13082;52.374;4.946;2024-03-08T00:30:24;5.70;99.90
25092;DHT22;13082;52.374;4.946;2024-03-08T00:32:50;5.80;99.90
25092;DHT22;13082;52.374;4.946;2024-03-08T00:35:16;5.80;99.90
25092;DHT22;13082;52.374;4.946;2024-03-08T00:37:41;5.80;99.90
25092;DHT22;13082;52.374;4.946;2024-03-08T00:40:08;5.80;99.90
25092;DHT22;13082;52.374;4.946;2024-03-08T00:42:34;5.70;99.90
25092;DHT22;13082;52.374;4.946;2024-03-08T00:45:01;5.70;99.90
25092;DHT22;13082;52.374;4.946;2024-03-08T00:47:26;5.70;99.90
25092;DHT22;13082;52.374;4.946;2024-03-08T00:49:52;5.70;99.90
25092;DHT22;13082;52.374;4.946;2024-03-08T00:52:18;5.70;99.90
25092;DHT22;13082;52.374;4.946;2024-03-08T00:54:44;5.70;99.90
25092;DHT22;13082;52.374;4.946;2024-03-08T00:57:10;5.70;99.90
25092;DHT22;13082;52.374;4.946;2024-03-08T00:59:38;5.70;99.90
25092;DHT22;13082;52.374;4.946;2024-03-08T01:02:04;5.60;99.90
25092;DHT22;13082;52.374;4.946;2024-03-08T01:04:29;5.60;99.90
25092;DHT22;13082;52.374;4.946;2024-03-08T01:06:56;5.60;99.90
25092;DHT22;13082;52.374;4.946;2024-03-08T01:09:25;5.70;99.90
25092;DHT22;13082;52.374;4.946;2024-03-08T01:11:52;5.70;99.90
25092;DHT22;13082;52.374;4.946;2024-03-08T01:14:20;5.70;99.90
25092;DHT22;13082;52.374;4.946;2024-03-08T01:16:48;5.70;99.90
25092;DHT22;13082;52.374;4.946;2024-03-08T01:19:13;5.70;99.90
25092;DHT22;13082;52.374;4.946;2024-03-08T01:21:39;5.70;99.90
25092;DHT22;13082;52.374;4.946;2024-03-08T01:24:05;5.60;99.90
25092;DHT22;13082;52.374;4.946;2024-03-08T01:26:31;5.60;99.90
25092;DHT22;13082;52.374;4.946;2024-03-08T01:28:56;5.60;99.90
25092;DHT22;13082;52.374;4.946;2024-03-08T01:31:22;5.60;99.90
25092;DHT22;13082;52.374;4.946;2024-03-08T01:33:47;5.50;99.90
25092;DHT22;13082;52.374;4.946;2024-03-08T01:36:15;5.50;99.90
25092;DHT22;13082;52.374;4.946;2024-03-08T01:38:42;5.50;99.90
25092;DHT22;13082;52.374;4.946;2024-03-08T01:41:08;5.50;99.90
25092;DHT22;13082;52.374;4.946;2024-03-08T01:43:34;5.50;99.90
25092;DHT22;13082;52.374;4.946;2024-03-08T01:46:00;5.50;99.90
25092;DHT22;13082;52.374;4.946;2024-03-08T01:48:28;5.50;99.90
25092;DHT22;13082;52.374;4.946;2024-03-08T01:50:55;5.40;99.90
25092;DHT22;13082;52.374;4.946;2024-03-08T01:53:22;5.40;99.90
25092;DHT22;13082;52.374;4.946;2024-03-08T01:55:49;5.30;99.90
25092;DHT22;13082;52.374;4.946;2024-03-08T01:58:15;5.20;99.90
25092;DHT22;13082;52.374;4.946;2024-03-08T02:00:46;5.30;99.90
25092;DHT22;13082;52.374;4.946;2024-03-08T02:03:12;5.30;99.90
25092;DHT22;13082;52.374;4.946;2024-03-08T02:05:40;5.20;99.90
25092;DHT22;13082;52.374;4.946;2024-03-08T02:08:06;5.10;99.90
25092;DHT22;13082;52.374;4.946;2024-03-08T02:10:44;5.10;99.90
25092;DHT22;13082;52.374;4.946;2024-03-08T02:13:10;5.10;99.90
25092;DHT22;13082;52.374;4.946;2024-03-08T02:18:18;5.00;99.90
25092;DHT22;13082;52.374;4.946;2024-03-08T02:20:45;5.00;99.90
25092;DHT22;13082;52.374;4.946;2024-03-08T02:23:13;5.00;99.90
25092;DHT22;13082;52.374;4.946;2024-03-08T02:25:39;4.90;99.90
25092;DHT22;13082;52.374;4.946;2024-03-08T02:28:05;4.90;99.90
25092;DHT22;13082;52.374;4.946;2024-03-08T02:30:31;4.80;99.90
25092;DHT22;13082;52.374;4.946;2024-03-08T02:32:56;4.80;99.90
25092;DHT22;13082;52.374;4.946;2024-03-08T02:35:23;4.80;99.90
25092;DHT22;13082;52.374;4.946;2024-03-08T02:37:48;4.80;99.90
25092;DHT22;13082;52.374;4.946;2024-03-08T02:40:14;4.80;99.90
25092;DHT22;13082;52.374;4.946;2024-03-08T02:42:40;4.80;99.90
25092;DHT22;13082;52.374;4.946;2024-03-08T02:45:06;4.80;99.90
25092;DHT22;13082;52.374;4.946;2024-03-08T02:47:32;4.80;99.90
25092;DHT22;13082;52.374;4.946;2024-03-08T02:49:57;4.80;99.90
25092;DHT22;13082;52.374;4.946;2024-03-08T02:52:23;4.80;99.90
25092;DHT22;13082;52.374;4.946;2024-03-08T02:54:49;4.70;99.90
25092;DHT22;13082;52.374;4.946;2024-03-08T02:57:15;4.70;99.90
25092;DHT22;13082;52.374;4.946;2024-03-08T02:59:41;4.70;99.90
25092;DHT22;13082;52.374;4.946;2024-03-08T03:02:07;4.70;99.90
25092;DHT22;13082;52.374;4.946;2024-03-08T03:04:32;4.70;99.90
25092;DHT22;13082;52.374;4.946;2024-03-08T03:07:00;4.70;99.90
25092;DHT22;13082;52.374;4.946;2024-03-08T03:09:26;4.60;99.90
25092;DHT22;13082;52.374;4.946;2024-03-08T03:11:53;4.60;99.90
25092;DHT22;13082;52.374;4.946;2024-03-08T03:14:21;4.60;99.90
25092;DHT22;13082;52.374;4.946;2024-03-08T03:16:47;4.60;99.90
25092;DHT22;13082;52.374;4.946;2024-03-08T03:19:12;4.60;99.90
25092;DHT22;13082;52.374;4.946;2024-03-08T03:21:38;4.60;99.90
25092;DHT22;13082;52.374;4.946;2024-03-08T03:24:04;4.60;99.90
25092;DHT22;13082;52.374;4.946;2024-03-08T03:26:36;4.60;99.90
25092;DHT22;13082;52.374;4.946;2024-03-08T03:29:07;4.60;99.90
25092;DHT22;13082;52.374;4.946;2024-03-08T03:31:34;4.60;99.90
25092;DHT22;13082;52.374;4.946;2024-03-08T03:34:00;4.60;99.90
25092;DHT22;13082;52.374;4.946;2024-03-08T03:36:29;4.60;99.90
25092;DHT22;13082;52.374;4.946;2024-03-08T03:38:55;4.60;99.90
25092;DHT22;13082;52.374;4.946;2024-03-08T03:41:36;4.60;99.90
25092;DHT22;13082;52.374;4.946;2024-03-08T03:44:01;4.60;99.90
25092;DHT22;13082;52.374;4.946;2024-03-08T03:46:27;4.50;99.90
25092;DHT22;13082;52.374;4.946;2024-03-08T03:48:54;4.50;99.90
25092;DHT22;13082;52.374;4.946;2024-03-08T03:51:21;4.50;99.90
25092;DHT22;13082;52.374;4.946;2024-03-08T03:53:46;4.50;99.90
25092;DHT22;13082;52.374;4.946;2024-03-08T03:56:12;4.50;99.90
25092;DHT22;13082;52.374;4.946;2024-03-08T03:58:38;4.40;99.90
25092;DHT22;13082;52.374;4.946;2024-03-08T04:01:05;4.40;99.90
25092;DHT22;13082;52.374;4.946;2024-03-08T04:03:31;4.40;99.90
25092;DHT22;13082;52.374;4.946;2024-03-08T04:05:56;4.40;99.90
25092;DHT22;13082;52.374;4.946;2024-03-08T04:08:22;4.40;99.90
25092;DHT22;13082;52.374;4.946;2024-03-08T04:10:50;4.40;99.90
25092;DHT22;13082;52.374;4.946;2024-03-08T04:13:16;4.30;99.90
25092;DHT22;13082;52.374;4.946;2024-03-08T04:15:42;4.40;99.90
25092;DHT22;13082;52.374;4.946;2024-03-08T04:18:09;4.30;99.90
25092;DHT22;13082;52.374;4.946;2024-03-08T04:20:35;4.20;99.90
25092;DHT22;13082;52.374;4.946;2024-03-08T04:23:02;4.30;99.90
25092;DHT22;13082;52.374;4.946;2024-03-08T04:25:27;4.20;99.90
25092;DHT22;13082;52.374;4.946;2024-03-08T04:27:53;4.20;99.90
25092;DHT22;13082;52.374;4.946;2024-03-08T04:30:19;4.20;99.90
25092;DHT22;13082;52.374;4.946;2024-03-08T04:32:46;4.20;99.90
25092;DHT22;13082;52.374;4.946;2024-03-08T04:35:12;4.20;99.90
25092;DHT22;13082;52.374;4.946;2024-03-08T04:37:38;4.10;99.90
25092;DHT22;13082;52.374;4.946;2024-03-08T04:40:05;4.10;99.90
25092;DHT22;13082;52.374;4.946;2024-03-08T04:42:31;4.00;99.90
25092;DHT22;13082;52.374;4.946;2024-03-08T04:44:58;4.00;99.90
25092;DHT22;13082;52.374;4.946;2024-03-08T04:47:24;4.00;99.90
25092;DHT22;13082;52.374;4.946;2024-03-08T04:49:50;4.10;99.90
25092;DHT22;13082;52.374;4.946;2024-03-08T04:52:16;4.00;99.90
25092;DHT22;13082;52.374;4.946;2024-03-08T04:54:42;4.00;99.90
25092;DHT22;13082;52.374;4.946;2024-03-08T04:57:08;4.00;99.90
25092;DHT22;13082;52.374;4.946;2024-03-08T04:59:34;3.90;99.90
25092;DHT22;13082;52.374;4.946;2024-03-08T05:01:59;4.00;99.90
25092;DHT22;13082;52.374;4.946;2024-03-08T05:04:25;3.90;99.90
25092;DHT22;13082;52.374;4.946;2024-03-08T05:06:51;3.90;99.90
25092;DHT22;13082;52.374;4.946;2024-03-08T05:09:16;3.90;99.90
25092;DHT22;13082;52.374;4.946;2024-03-08T05:11:43;3.90;99.90
25092;DHT22;13082;52.374;4.946;2024-03-08T05:14:10;3.90;99.90
25092;DHT22;13082;52.374;4.946;2024-03-08T05:16:35;3.90;99.90
25092;DHT22;13082;52.374;4.946;2024-03-08T05:19:02;3.90;99.90
25092;DHT22;13082;52.374;4.946;2024-03-08T05:21:27;3.90;99.90
25092;DHT22;13082;52.374;4.946;2024-03-08T05:23:54;3.90;99.90
25092;DHT22;13082;52.374;4.946;2024-03-08T05:26:20;3.90;99.90
25092;DHT22;13082;52.374;4.946;2024-03-08T05:28:47;3.90;99.90
25092;DHT22;13082;52.374;4.946;2024-03-08T05:31:20;3.90;99.90
25092;DHT22;13082;52.374;4.946;2024-03-08T05:33:49;3.90;99.90
25092;DHT22;13082;52.374;4.946;2024-03-08T05:36:15;3.80;99.90
25092;DHT22;13082;52.374;4.946;2024-03-08T05:38:44;3.90;99.90
25092;DHT22;13082;52.374;4.946;2024-03-08T05:41:10;3.90;99.90
25092;DHT22;13082;52.374;4.946;2024-03-08T05:43:37;3.80;99.90
25092;DHT22;13082;52.374;4.946;2024-03-08T05:46:03;3.80;99.90
25092;DHT22;13082;52.374;4.946;2024-03-08T05:48:30;3.80;99.90
25092;DHT22;13082;52.374;4.946;2024-03-08T05:50:58;3.80;99.90
25092;DHT22;13082;52.374;4.946;2024-03-08T05:53:23;3.80;99.90
25092;DHT22;13082;52.374;4.946;2024-03-08T05:55:49;3.80;99.90
25092;DHT22;13082;52.374;4.946;2024-03-08T05:58:15;3.80;99.90
25092;DHT22;13082;52.374;4.946;2024-03-08T06:00:41;3.80;99.90
25092;DHT22;13082;52.374;4.946;2024-03-08T06:03:06;3.90;99.90
25092;DHT22;13082;52.374;4.946;2024-03-08T06:05:33;3.80;99.90
25092;DHT22;13082;52.374;4.946;2024-03-08T06:07:59;3.80;99.90
25092;DHT22;13082;52.374;4.946;2024-03-08T06:10:24;3.90;99.90
25092;DHT22;13082;52.374;4.946;2024-03-08T06:12:50;3.80;99.90
25092;DHT22;13082;52.374;4.946;2024-03-08T06:15:17;3.90;99.90
25092;DHT22;13082;52.374;4.946;2024-03-08T06:17:42;3.90;99.90
25092;DHT22;13082;52.374;4.946;2024-03-08T06:20:08;3.90;99.90
25092;DHT22;13082;52.374;4.946;2024-03-08T06:22:41;3.90;99.90
25092;DHT22;13082;52.374;4.946;2024-03-08T06:25:07;3.90;99.90
25092;DHT22;13082;52.374;4.946;2024-03-08T06:27:33;3.90;99.90
25092;DHT22;13082;52.374;4.946;2024-03-08T06:30:00;3.90;99.90
25092;DHT22;13082;52.374;4.946;2024-03-08T06:32:25;3.90;99.90
25092;DHT22;13082;52.374;4.946;2024-03-08T06:34:51;3.90;99.90
25092;DHT22;13082;52.374;4.946;2024-03-08T06:37:17;3.90;99.90
25092;DHT22;13082;52.374;4.946;2024-03-08T06:39:47;3.90;99.90
25092;DHT22;13082;52.374;4.946;2024-03-08T06:42:13;3.80;99.90
25092;DHT22;13082;52.374;4.946;2024-03-08T06:44:39;3.90;99.90
25092;DHT22;13082;52.374;4.946;2024-03-08T06:47:14;3.90;99.90
25092;DHT22;13082;52.374;4.946;2024-03-08T06:49:41;3.90;99.90
25092;DHT22;13082;52.374;4.946;2024-03-08T06:52:06;4.00;99.90
25092;DHT22;13082;52.374;4.946;2024-03-08T06:54:34;4.00;99.90
25092;DHT22;13082;52.374;4.946;2024-03-08T06:57:04;4.00;99.90
25092;DHT22;13082;52.374;4.946;2024-03-08T06:59:33;4.00;99.90
25092;DHT22;13082;52.374;4.946;2024-03-08T07:02:01;3.90;99.90
25092;DHT22;13082;52.374;4.946;2024-03-08T07:04:27;3.90;99.90
25092;DHT22;13082;52.374;4.946;2024-03-08T07:06:56;4.00;99.90
25092;DHT22;13082;52.374;4.946;2024-03-08T07:09:23;4.00;99.90
25092;DHT22;13082;52.374;4.946;2024-03-08T07:11:50;4.10;99.90
25092;DHT22;13082;52.374;4.946;2024-03-08T07:14:21;4.10;99.90
25092;DHT22;13082;52.374;4.946;2024-03-08T07:16:47;4.10;99.90
25092;DHT22;13082;52.374;4.946;2024-03-08T07:19:13;4.10;99.90
25092;DHT22;13082;52.374;4.946;2024-03-08T07:21:39;4.10;99.90
25092;DHT22;13082;52.374;4.946;2024-03-08T07:24:05;4.20;99.90
25092;DHT22;13082;52.374;4.946;2024-03-08T07:26:43;4.20;99.90
25092;DHT22;13082;52.374;4.946;2024-03-08T07:29:09;4.20;99.90
25092;DHT22;13082;52.374;4.946;2024-03-08T07:31:35;4.20;99.90
25092;DHT22;13082;52.374;4.946;2024-03-08T07:34:16;4.20;99.90
25092;DHT22;13082;52.374;4.946;2024-03-08T07:36:42;4.30;99.90
25092;DHT22;13082;52.374;4.946;2024-03-08T07:39:08;4.30;99.90
25092;DHT22;13082;52.374;4.946;2024-03-08T07:41:40;4.30;99.90
25092;DHT22;13082;52.374;4.946;2024-03-08T07:44:06;4.40;99.90
25092;DHT22;13082;52.374;4.946;2024-03-08T07:46:32;4.50;99.90
25092;DHT22;13082;52.374;4.946;2024-03-08T07:48:59;4.50;99.90
25092;DHT22;13082;52.374;4.946;2024-03-08T07:51:25;4.50;99.90
25092;DHT22;13082;52.374;4.946;2024-03-08T07:53:51;4.50;99.90
25092;DHT22;13082;52.374;4.946;2024-03-08T07:56:16;4.60;99.90
25092;DHT22;13082;52.374;4.946;2024-03-08T07:58:44;4.60;99.90
25092;DHT22;13082;52.374;4.946;2024-03-08T08:01:17;4.60;99.90
25092;DHT22;13082;52.374;4.946;2024-03-08T08:03:43;4.70;99.90
25092;DHT22;13082;52.374;4.946;2024-03-08T08:06:09;4.70;99.90
25092;DHT22;13082;52.374;4.946;2024-03-08T08:08:35;4.80;99.90
25092;DHT22;13082;52.374;4.946;2024-03-08T08:11:02;4.80;99.90
25092;DHT22;13082;52.374;4.946;2024-03-08T08:13:28;4.90;99.90
25092;DHT22;13082;52.374;4.946;2024-03-08T08:15:57;4.90;99.90
25092;DHT22;13082;52.374;4.946;2024-03-08T08:18:23;5.00;99.90
25092;DHT22;13082;52.374;4.946;2024-03-08T08:20:51;5.00;99.90
25092;DHT22;13082;52.374;4.946;2024-03-08T08:23:18;5.10;99.90
25092;DHT22;13082;52.374;4.946;2024-03-08T08:25:45;5.20;99.90
25092;DHT22;13082;52.374;4.946;2024-03-08T08:28:11;5.20;99.90
25092;DHT22;13082;52.374;4.946;2024-03-08T08:30:38;5.20;99.90
25092;DHT22;13082;52.374;4.946;2024-03-08T08:33:04;5.30;99.90
25092;DHT22;13082;52.374;4.946;2024-03-08T08:35:31;5.30;99.90
25092;DHT22;13082;52.374;4.946;2024-03-08T08:37:58;5.30;99.90
25092;DHT22;13082;52.374;4.946;2024-03-08T08:40:24;5.40;99.90
25092;DHT22;13082;52.374;4.946;2024-03-08T08:42:51;5.40;99.90
25092;DHT22;13082;52.374;4.946;2024-03-08T08:45:18;5.40;99.90
25092;DHT22;13082;52.374;4.946;2024-03-08T08:47:44;5.50;99.90
25092;DHT22;13082;52.374;4.946;2024-03-08T08:50:10;5.60;99.90
25092;DHT22;13082;52.374;4.946;2024-03-08T08:52:40;5.60;99.90
25092;DHT22;13082;52.374;4.946;2024-03-08T08:55:06;5.60;99.90
25092;DHT22;13082;52.374;4.946;2024-03-08T08:57:32;5.70;99.90
25092;DHT22;13082;52.374;4.946;2024-03-08T09:00:01;5.70;99.90
25092;DHT22;13082;52.374;4.946;2024-03-08T09:02:27;5.80;99.90
25092;DHT22;13082;52.374;4.946;2024-03-08T09:04:53;5.90;99.90
25092;DHT22;13082;52.374;4.946;2024-03-08T09:07:18;5.90;99.90
25092;DHT22;13082;52.374;4.946;2024-03-08T09:09:44;6.10;99.90
25092;DHT22;13082;52.374;4.946;2024-03-08T09:12:11;6.20;99.90
25092;DHT22;13082;52.374;4.946;2024-03-08T09:14:39;6.30;99.90
25092;DHT22;13082;52.374;4.946;2024-03-08T09:17:05;6.40;99.90
25092;DHT22;13082;52.374;4.946;2024-03-08T09:19:37;6.40;99.90
25092;DHT22;13082;52.374;4.946;2024-03-08T09:22:03;6.50;99.90
25092;DHT22;13082;52.374;4.946;2024-03-08T09:24:29;6.40;99.90
25092;DHT22;13082;52.374;4.946;2024-03-08T09:26:56;6.50;99.90
25092;DHT22;13082;52.374;4.946;2024-03-08T09:29:24;6.40;99.90
25092;DHT22;13082;52.374;4.946;2024-03-08T09:31:49;6.40;99.90
25092;DHT22;13082;52.374;4.946;2024-03-08T09:34:15;6.50;99.90
25092;DHT22;13082;52.374;4.946;2024-03-08T09:36:41;6.50;99.90
25092;DHT22;13082;52.374;4.946;2024-03-08T09:39:07;6.40;99.90
25092;DHT22;13082;52.374;4.946;2024-03-08T09:41:33;6.50;99.90
25092;DHT22;13082;52.374;4.946;2024-03-08T09:44:00;6.50;99.90
25092;DHT22;13082;52.374;4.946;2024-03-08T09:46:26;6.50;99.90
25092;DHT22;13082;52.374;4.946;2024-03-08T09:48:55;6.60;99.90
25092;DHT22;13082;52.374;4.946;2024-03-08T09:51:28;6.60;99.90
25092;DHT22;13082;52.374;4.946;2024-03-08T09:53:54;6.60;99.90
25092;DHT22;13082;52.374;4.946;2024-03-08T09:56:22;6.60;99.90
25092;DHT22;13082;52.374;4.946;2024-03-08T09:58:49;6.70;99.90
25092;DHT22;13082;52.374;4.946;2024-03-08T10:01:34;6.80;99.90
25092;DHT22;13082;52.374;4.946;2024-03-08T10:04:00;6.90;99.90
25092;DHT22;13082;52.374;4.946;2024-03-08T10:06:27;7.00;99.90
25092;DHT22;13082;52.374;4.946;2024-03-08T10:08:53;7.00;99.90
25092;DHT22;13082;52.374;4.946;2024-03-08T10:11:19;7.10;99.90
25092;DHT22;13082;52.374;4.946;2024-03-08T10:13:45;7.10;99.90
25092;DHT22;13082;52.374;4.946;2024-03-08T10:16:13;7.20;99.90
25092;DHT22;13082;52.374;4.946;2024-03-08T10:18:38;7.30;99.90
25092;DHT22;13082;52.374;4.946;2024-03-08T10:21:05;7.40;99.90
25092;DHT22;13082;52.374;4.946;2024-03-08T10:23:31;7.50;99.90
25092;DHT22;13082;52.374;4.946;2024-03-08T10:26:12;7.60;99.90
25092;DHT22;13082;52.374;4.946;2024-03-08T10:28:51;7.60;99.90
25092;DHT22;13082;52.374;4.946;2024-03-08T10:31:18;7.70;99.90
25092;DHT22;13082;52.374;4.946;2024-03-08T10:33:45;7.70;99.90
25092;DHT22;13082;52.374;4.946;2024-03-08T10:36:11;7.70;99.90
25092;DHT22;13082;52.374;4.946;2024-03-08T10:38:39;7.70;99.90
25092;DHT22;13082;52.374;4.946;2024-03-08T10:41:24;7.80;99.90
25092;DHT22;13082;52.374;4.946;2024-03-08T10:44:10;8.00;99.90
25092;DHT22;13082;52.374;4.946;2024-03-08T10:49:50;8.20;99.90
25092;DHT22;13082;52.374;4.946;2024-03-08T10:52:17;8.30;99.90
25092;DHT22;13082;52.374;4.946;2024-03-08T10:54:45;8.40;99.90
25092;DHT22;13082;52.374;4.946;2024-03-08T10:57:12;8.50;99.90
25092;DHT22;13082;52.374;4.946;2024-03-08T10:59:38;8.60;99.90
25092;DHT22;13082;52.374;4.946;2024-03-08T11:02:05;8.80;99.90
25092;DHT22;13082;52.374;4.946;2024-03-08T11:04:31;8.90;99.90
25092;DHT22;13082;52.374;4.946;2024-03-08T11:07:02;8.90;99.90
25092;DHT22;13082;52.374;4.946;2024-03-08T11:09:35;9.00;99.90
25092;DHT22;13082;52.374;4.946;2024-03-08T11:12:27;9.10;99.90
25092;DHT22;13082;52.374;4.946;2024-03-08T11:15:10;9.20;99.90
25092;DHT22;13082;52.374;4.946;2024-03-08T11:20:16;9.40;99.90
25092;DHT22;13082;52.374;4.946;2024-03-08T11:22:48;9.50;99.90
25092;DHT22;13082;52.374;4.946;2024-03-08T11:25:38;9.60;99.90
25092;DHT22;13082;52.374;4.946;2024-03-08T11:28:17;9.70;99.90
25092;DHT22;13082;52.374;4.946;2024-03-08T11:30:45;9.70;99.90
25092;DHT22;13082;52.374;4.946;2024-03-08T11:33:16;9.70;99.90
25092;DHT22;13082;52.374;4.946;2024-03-08T11:35:42;9.80;99.90
25092;DHT22;13082;52.374;4.946;2024-03-08T11:38:11;9.80;99.90
25092;DHT22;13082;52.374;4.946;2024-03-08T11:40:39;9.90;99.90
25092;DHT22;13082;52.374;4.946;2024-03-08T11:43:05;10.00;99.90
25092;DHT22;13082;52.374;4.946;2024-03-08T11:45:34;10.00;99.90
25092;DHT22;13082;52.374;4.946;2024-03-08T11:48:04;10.10;99.90
25092;DHT22;13082;52.374;4.946;2024-03-08T11:50:30;10.10;99.90
25092;DHT22;13082;52.374;4.946;2024-03-08T11:53:02;10.20;99.90
25092;DHT22;13082;52.374;4.946;2024-03-08T11:55:28;10.20;99.90
25092;DHT22;13082;52.374;4.946;2024-03-08T11:58:04;10.20;99.90
25092;DHT22;13082;52.374;4.946;2024-03-08T12:00:31;10.20;99.90
25092;DHT22;13082;52.374;4.946;2024-03-08T12:03:08;10.20;99.90
25092;DHT22;13082;52.374;4.946;2024-03-08T12:05:35;10.20;99.90
25092;DHT22;13082;52.374;4.946;2024-03-08T12:08:02;10.30;99.90
25092;DHT22;13082;52.374;4.946;2024-03-08T12:10:28;10.40;99.90
25092;DHT22;13082;52.374;4.946;2024-03-08T12:12:57;10.50;99.90
25092;DHT22;13082;52.374;4.946;2024-03-08T12:15:25;10.50;99.90
25092;DHT22;13082;52.374;4.946;2024-03-08T12:17:52;10.50;99.90
25092;DHT22;13082;52.374;4.946;2024-03-08T12:20:23;10.50;99.90
25092;DHT22;13082;52.374;4.946;2024-03-08T12:22:54;10.50;99.90
25092;DHT22;13082;52.374;4.946;2024-03-08T12:25:26;10.60;99.90
25092;DHT22;13082;52.374;4.946;2024-03-08T12:27:52;10.60;99.90
25092;DHT22;13082;52.374;4.946;2024-03-08T12:30:23;10.70;99.90
25092;DHT22;13082;52.374;4.946;2024-03-08T12:32:54;10.70;99.90
25092;DHT22;13082;52.374;4.946;2024-03-08T12:35:23;10.70;99.90
25092;DHT22;13082;52.374;4.946;2024-03-08T12:37:54;10.70;99.90
25092;DHT22;13082;52.374;4.946;2024-03-08T12:40:28;10.80;99.90
25092;DHT22;13082;52.374;4.946;2024-03-08T12:42:55;10.80;99.90
25092;DHT22;13082;52.374;4.946;2024-03-08T12:45:22;10.90;99.90
25092;DHT22;13082;52.374;4.946;2024-03-08T12:47:52;10.90;99.90
25092;DHT22;13082;52.374;4.946;2024-03-08T12:50:24;11.00;99.90
25092;DHT22;13082;52.374;4.946;2024-03-08T12:52:52;11.10;99.90
25092;DHT22;13082;52.374;4.946;2024-03-08T12:55:18;11.10;99.90
25092;DHT22;13082;52.374;4.946;2024-03-08T12:57:45;11.20;99.90
25092;DHT22;13082;52.374;4.946;2024-03-08T13:00:11;11.20;99.90
25092;DHT22;13082;52.374;4.946;2024-03-08T13:02:47;11.20;99.90
25092;DHT22;13082;52.374;4.946;2024-03-08T13:05:13;11.20;99.90
25092;DHT22;13082;52.374;4.946;2024-03-08T13:07:41;11.20;99.90
25092;DHT22;13082;52.374;4.946;2024-03-08T13:10:14;11.20;99.90
25092;DHT22;13082;52.374;4.946;2024-03-08T13:12:43;11.10;99.90
25092;DHT22;13082;52.374;4.946;2024-03-08T13:15:09;11.20;99.90
25092;DHT22;13082;52.374;4.946;2024-03-08T13:17:48;11.10;99.90
25092;DHT22;13082;52.374;4.946;2024-03-08T13:20:14;11.10;99.90
25092;DHT22;13082;52.374;4.946;2024-03-08T13:22:45;11.10;99.90
25092;DHT22;13082;52.374;4.946;2024-03-08T13:25:11;11.10;99.90
25092;DHT22;13082;52.374;4.946;2024-03-08T13:27:40;11.10;99.90
25092;DHT22;13082;52.374;4.946;2024-03-08T13:30:11;11.30;99.90
25092;DHT22;13082;52.374;4.946;2024-03-08T13:32:42;11.20;99.90
25092;DHT22;13082;52.374;4.946;2024-03-08T13:35:11;11.20;99.90
25092;DHT22;13082;52.374;4.946;2024-03-08T13:37:40;11.30;99.90
25092;DHT22;13082;52.374;4.946;2024-03-08T13:40:07;11.40;99.90
25092;DHT22;13082;52.374;4.946;2024-03-08T13:42:40;11.40;99.90
25092;DHT22;13082;52.374;4.946;2024-03-08T13:45:08;11.40;99.90
25092;DHT22;13082;52.374;4.946;2024-03-08T13:47:36;11.40;99.90
25092;DHT22;13082;52.374;4.946;2024-03-08T13:50:02;11.30;99.90
25092;DHT22;13082;52.374;4.946;2024-03-08T13:52:29;11.30;99.90
25092;DHT22;13082;52.374;4.946;2024-03-08T13:54:55;11.30;99.90
25092;DHT22;13082;52.374;4.946;2024-03-08T13:57:21;11.30;99.90
25092;DHT22;13082;52.374;4.946;2024-03-08T13:59:48;11.20;99.90
25092;DHT22;13082;52.374;4.946;2024-03-08T14:02:16;11.10;99.90
25092;DHT22;13082;52.374;4.946;2024-03-08T14:04:42;11.10;99.90
25092;DHT22;13082;52.374;4.946;2024-03-08T14:07:08;11.10;99.90
25092;DHT22;13082;52.374;4.946;2024-03-08T14:09:34;11.00;99.90
25092;DHT22;13082;52.374;4.946;2024-03-08T14:12:03;10.90;99.90
25092;DHT22;13082;52.374;4.946;2024-03-08T14:14:33;10.90;99.90
25092;DHT22;13082;52.374;4.946;2024-03-08T14:17:03;10.90;99.90
25092;DHT22;13082;52.374;4.946;2024-03-08T14:19:29;10.90;99.90
25092;DHT22;13082;52.374;4.946;2024-03-08T14:21:59;11.00;99.90
25092;DHT22;13082;52.374;4.946;2024-03-08T14:24:25;11.00;99.90
25092;DHT22;13082;52.374;4.946;2024-03-08T14:26:51;11.00;99.90
25092;DHT22;13082;52.374;4.946;2024-03-08T14:29:17;11.00;99.90
25092;DHT22;13082;52.374;4.946;2024-03-08T14:31:44;10.90;99.90
25092;DHT22;13082;52.374;4.946;2024-03-08T14:34:10;10.90;99.90
25092;DHT22;13082;52.374;4.946;2024-03-08T14:36:36;10.90;99.90
25092;DHT22;13082;52.374;4.946;2024-03-08T14:39:03;10.90;99.90
25092;DHT22;13082;52.374;4.946;2024-03-08T14:41:29;10.90;99.90
25092;DHT22;13082;52.374;4.946;2024-03-08T14:43:55;10.90;99.90
25092;DHT22;13082;52.374;4.946;2024-03-08T14:46:22;11.00;99.90
25092;DHT22;13082;52.374;4.946;2024-03-08T14:48:54;11.00;99.90
25092;DHT22;13082;52.374;4.946;2024-03-08T14:51:20;11.00;99.90
25092;DHT22;13082;52.374;4.946;2024-03-08T14:53:52;10.90;99.90
25092;DHT22;13082;52.374;4.946;2024-03-08T14:56:20;10.90;99.90
25092;DHT22;13082;52.374;4.946;2024-03-08T14:58:46;10.90;99.90
25092;DHT22;13082;52.374;4.946;2024-03-08T15:01:15;11.00;99.90
25092;DHT22;13082;52.374;4.946;2024-03-08T15:03:44;11.00;99.90
25092;DHT22;13082;52.374;4.946;2024-03-08T15:06:10;11.00;99.90
25092;DHT22;13082;52.374;4.946;2024-03-08T15:08:36;10.90;99.90
25092;DHT22;13082;52.374;4.946;2024-03-08T15:11:02;10.90;99.90
25092;DHT22;13082;52.374;4.946;2024-03-08T15:13:28;10.90;99.90
25092;DHT22;13082;52.374;4.946;2024-03-08T15:16:03;10.90;99.90
25092;DHT22;13082;52.374;4.946;2024-03-08T15:18:32;10.90;99.90
25092;DHT22;13082;52.374;4.946;2024-03-08T15:21:02;10.80;99.90
25092;DHT22;13082;52.374;4.946;2024-03-08T15:23:35;10.80;99.90
25092;DHT22;13082;52.374;4.946;2024-03-08T15:26:01;10.80;99.90
25092;DHT22;13082;52.374;4.946;2024-03-08T15:28:27;10.80;99.90
25092;DHT22;13082;52.374;4.946;2024-03-08T15:31:02;10.80;99.90
25092;DHT22;13082;52.374;4.946;2024-03-08T15:33:34;10.80;99.90
25092;DHT22;13082;52.374;4.946;2024-03-08T15:36:04;10.80;99.90
25092;DHT22;13082;52.374;4.946;2024-03-08T15:38:33;10.80;99.90
25092;DHT22;13082;52.374;4.946;2024-03-08T15:40:59;10.80;99.90
25092;DHT22;13082;52.374;4.946;2024-03-08T15:43:25;10.80;99.90
25092;DHT22;13082;52.374;4.946;2024-03-08T15:45:50;10.70;99.90
25092;DHT22;13082;52.374;4.946;2024-03-08T15:48:17;10.70;99.90
25092;DHT22;13082;52.374;4.946;2024-03-08T15:50:42;10.70;99.90
25092;DHT22;13082;52.374;4.946;2024-03-08T15:53:08;10.70;99.90